sensor_id;sensor_type;location;lat;lon;timestamp;pressure;altitude;pressure_sealevel;temperature;humidity
66381;BME280;53177;52.648;1.214;2022-08-25T00:01:20;101184.22;;;21.43;81.63
66381;BME280;53177;52.648;1.214;2022-08-25T00:03:47;101185.03;;;21.43;83.28
66381;BME280;53177;52.648;1.214;2022-08-25T00:06:13;101182.53;;;21.33;84.29
66381;BME280;53177;52.648;1.214;2022-08-25T00:08:39;101187.41;;;21.23;85.85
66381;BME280;53177;52.648;1.214;2022-08-25T00:11:17;101184.88;;;21.26;85.76
66381;BME280;53177;52.648;1.214;2022-08-25T00:13:48;101188.75;;;20.98;88.37
66381;BME280;53177;52.648;1.214;2022-08-25T00:16:16;101183.88;;;21.22;86.14
66381;BME280;53177;52.648;1.214;2022-08-25T00:18:43;101188.13;;;21.14;87.40
66381;BME280;53177;52.648;1.214;2022-08-25T00:21:10;101180.28;;;20.99;88.63
66381;BME280;53177;52.648;1.214;2022-08-25T00:23:36;101185.13;;;20.88;89.43
66381;BME280;53177;52.648;1.214;2022-08-25T00:26:02;101181.06;;;21.13;87.96
66381;BME280;53177;52.648;1.214;2022-08-25T00:28:27;101183.09;;;21.08;88.64
66381;BME280;53177;52.648;1.214;2022-08-25T00:30:54;101183.22;;;20.75;91.21
66381;BME280;53177;52.648;1.214;2022-08-25T00:33:20;101178.66;;;20.98;88.43
66381;BME280;53177;52.648;1.214;2022-08-25T00:35:46;101185.97;;;21.25;86.49
66381;BME280;53177;52.648;1.214;2022-08-25T00:38:12;101179.19;;;21.23;87.75
66381;BME280;53177;52.648;1.214;2022-08-25T00:40:39;101182.28;;;20.93;89.93
66381;BME280;53177;52.648;1.214;2022-08-25T00:43:06;101190.03;;;20.64;92.32
66381;BME280;53177;52.648;1.214;2022-08-25T00:45:33;101193.25;;;20.80;90.88
66381;BME280;53177;52.648;1.214;2022-08-25T00:47:59;101189.66;;;21.07;89.11
66381;BME280;53177;52.648;1.214;2022-08-25T00:50:28;101192.25;;;20.89;91.11
66381;BME280;53177;52.648;1.214;2022-08-25T00:52:55;101199.94;;;20.60;93.24
66381;BME280;53177;52.648;1.214;2022-08-25T00:55:30;101202.44;;;20.70;92.49
66381;BME280;53177;52.648;1.214;2022-08-25T01:00:36;101197.47;;;21.00;90.21
66381;BME280;53177;52.648;1.214;2022-08-25T01:03:03;101189.94;;;21.19;87.86
66381;BME280;53177;52.648;1.214;2022-08-25T01:05:29;101178.84;;;21.02;89.54
66381;BME280;53177;52.648;1.214;2022-08-25T01:07:56;101182.88;;;21.18;88.45
66381;BME280;53177;52.648;1.214;2022-08-25T01:10:23;101173.63;;;20.91;88.83
66381;BME280;53177;52.648;1.214;2022-08-25T01:12:51;101175.03;;;20.75;90.58
66381;BME280;53177;52.648;1.214;2022-08-25T01:15:20;101174.44;;;20.78;89.46
66381;BME280;53177;52.648;1.214;2022-08-25T01:17:51;101183.31;;;20.42;92.66
66381;BME280;53177;52.648;1.214;2022-08-25T01:20:20;101182.66;;;20.51;92.10
66381;BME280;53177;52.648;1.214;2022-08-25T01:22:48;101192.00;;;20.44;92.23
66381;BME280;53177;52.648;1.214;2022-08-25T01:28:01;101181.63;;;20.60;91.23
66381;BME280;53177;52.648;1.214;2022-08-25T01:30:28;101178.19;;;20.68;89.85
66381;BME280;53177;52.648;1.214;2022-08-25T01:32:53;101168.38;;;20.81;87.82
66381;BME280;53177;52.648;1.214;2022-08-25T01:35:19;101180.09;;;20.95;87.54
66381;BME280;53177;52.648;1.214;2022-08-25T01:37:44;101171.28;;;20.99;87.24
66381;BME280;53177;52.648;1.214;2022-08-25T01:40:11;101162.50;;;20.47;91.37
66381;BME280;53177;52.648;1.214;2022-08-25T01:45:04;101169.72;;;20.56;90.55
66381;BME280;53177;52.648;1.214;2022-08-25T01:47:30;101173.56;;;20.55;91.38
66381;BME280;53177;52.648;1.214;2022-08-25T01:49:56;101164.00;;;20.39;92.54
66381;BME280;53177;52.648;1.214;2022-08-25T01:52:33;101163.31;;;20.19;94.32
66381;BME280;53177;52.648;1.214;2022-08-25T01:55:01;101157.31;;;20.04;95.73
66381;BME280;53177;52.648;1.214;2022-08-25T01:57:29;101157.16;;;19.81;97.96
66381;BME280;53177;52.648;1.214;2022-08-25T01:59:56;101151.56;;;19.91;96.76
66381;BME280;53177;52.648;1.214;2022-08-25T02:02:22;101145.47;;;19.94;96.80
66381;BME280;53177;52.648;1.214;2022-08-25T02:04:47;101148.72;;;19.97;96.33
66381;BME280;53177;52.648;1.214;2022-08-25T02:07:13;101143.88;;;19.93;96.96
66381;BME280;53177;52.648;1.214;2022-08-25T02:09:38;101144.47;;;19.90;97.19
66381;BME280;53177;52.648;1.214;2022-08-25T02:12:04;101147.47;;;19.75;98.67
66381;BME280;53177;52.648;1.214;2022-08-25T02:14:30;101152.25;;;19.83;97.53
66381;BME280;53177;52.648;1.214;2022-08-25T02:16:55;101151.94;;;19.85;97.37
66381;BME280;53177;52.648;1.214;2022-08-25T02:19:22;101147.94;;;19.96;96.84
66381;BME280;53177;52.648;1.214;2022-08-25T02:21:48;101145.50;;;20.08;95.23
66381;BME280;53177;52.648;1.214;2022-08-25T02:24:14;101134.41;;;20.05;96.02
66381;BME280;53177;52.648;1.214;2022-08-25T02:26:40;101127.03;;;19.91;97.04
66381;BME280;53177;52.648;1.214;2022-08-25T02:29:06;101127.09;;;19.86;97.72
66381;BME280;53177;52.648;1.214;2022-08-25T02:31:31;101125.88;;;19.79;98.73
66381;BME280;53177;52.648;1.214;2022-08-25T02:33:58;101123.44;;;19.77;98.06
66381;BME280;53177;52.648;1.214;2022-08-25T02:36:23;101127.88;;;19.73;98.65
66381;BME280;53177;52.648;1.214;2022-08-25T02:38:49;101125.22;;;19.68;99.09
66381;BME280;53177;52.648;1.214;2022-08-25T02:41:17;101117.94;;;19.63;99.41
66381;BME280;53177;52.648;1.214;2022-08-25T02:43:44;101119.38;;;19.61;100.00
66381;BME280;53177;52.648;1.214;2022-08-25T02:46:11;101103.03;;;19.61;100.00
66381;BME280;53177;52.648;1.214;2022-08-25T02:48:37;101099.75;;;19.59;100.00
66381;BME280;53177;52.648;1.214;2022-08-25T02:51:04;101099.75;;;19.59;100.00
66381;BME280;53177;52.648;1.214;2022-08-25T02:53:31;101095.09;;;19.59;99.96
66381;BME280;53177;52.648;1.214;2022-08-25T02:55:57;101099.47;;;19.41;100.00
66381;BME280;53177;52.648;1.214;2022-08-25T02:58:24;101083.84;;;19.33;100.00
66381;BME280;53177;52.648;1.214;2022-08-25T03:00:50;101074.78;;;19.19;100.00
66381;BME280;53177;52.648;1.214;2022-08-25T03:03:16;101072.16;;;19.14;100.00
66381;BME280;53177;52.648;1.214;2022-08-25T03:05:41;101068.94;;;19.12;100.00
66381;BME280;53177;52.648;1.214;2022-08-25T03:08:08;101064.06;;;19.09;100.00
66381;BME280;53177;52.648;1.214;2022-08-25T03:10:34;101072.16;;;19.14;100.00
66381;BME280;53177;52.648;1.214;2022-08-25T03:12:59;101064.06;;;19.09;100.00
66381;BME280;53177;52.648;1.214;2022-08-25T03:15:25;101062.00;;;19.01;100.00
66381;BME280;53177;52.648;1.214;2022-08-25T03:17:53;101063.34;;;19.03;100.00
66381;BME280;53177;52.648;1.214;2022-08-25T03:20:20;101055.19;;;19.03;100.00
66381;BME280;53177;52.648;1.214;2022-08-25T03:22:47;101050.31;;;19.00;100.00
66381;BME280;53177;52.648;1.214;2022-08-25T03:25:13;101049.44;;;19.05;100.00
66381;BME280;53177;52.648;1.214;2022-08-25T03:27:57;101045.59;;;19.06;100.00
66381;BME280;53177;52.648;1.214;2022-08-25T03:30:24;101027.56;;;19.10;100.00
66381;BME280;53177;52.648;1.214;2022-08-25T03:32:50;101029.09;;;19.16;100.00
66381;BME280;53177;52.648;1.214;2022-08-25T03:35:16;101038.31;;;19.20;100.00
66381;BME280;53177;52.648;1.214;2022-08-25T03:37:41;101034.03;;;19.14;100.00
66381;BME280;53177;52.648;1.214;2022-08-25T03:40:09;101020.31;;;19.19;100.00
66381;BME280;53177;52.648;1.214;2022-08-25T03:42:35;101017.59;;;19.19;100.00
66381;BME280;53177;52.648;1.214;2022-08-25T03:45:05;101010.03;;;19.16;100.00
66381;BME280;53177;52.648;1.214;2022-08-25T03:47:32;101009.59;;;19.09;100.00
66381;BME280;53177;52.648;1.214;2022-08-25T03:49:58;101004.34;;;18.99;100.00
66381;BME280;53177;52.648;1.214;2022-08-25T03:52:23;101007.56;;;19.01;100.00
66381;BME280;53177;52.648;1.214;2022-08-25T03:54:49;100998.91;;;18.99;100.00
66381;BME280;53177;52.648;1.214;2022-08-25T03:57:14;101002.91;;;19.01;100.00
66381;BME280;53177;52.648;1.214;2022-08-25T03:59:40;100990.94;;;19.02;100.00
66381;BME280;53177;52.648;1.214;2022-08-25T04:02:05;101001.63;;;18.99;100.00
66381;BME280;53177;52.648;1.214;2022-08-25T04:04:31;101001.09;;;18.97;100.00
66381;BME280;53177;52.648;1.214;2022-08-25T04:06:57;101005.72;;;18.96;100.00
66381;BME280;53177;52.648;1.214;2022-08-25T04:09:23;101009.06;;;18.93;100.00
66381;BME280;53177;52.648;1.214;2022-08-25T04:11:49;100991.91;;;18.92;100.00
66381;BME280;53177;52.648;1.214;2022-08-25T04:14:14;100990.19;;;18.97;100.00
66381;BME280;53177;52.648;1.214;2022-08-25T04:16:40;100993.44;;;18.99;100.00
66381;BME280;53177;52.648;1.214;2022-08-25T04:19:06;101000.91;;;18.93;100.00
66381;BME280;53177;52.648;1.214;2022-08-25T04:21:34;100993.81;;;18.92;100.00
66381;BME280;53177;52.648;1.214;2022-08-25T04:24:00;100997.88;;;18.94;100.00
66381;BME280;53177;52.648;1.214;2022-08-25T04:26:35;100993.00;;;18.91;100.00
66381;BME280;53177;52.648;1.214;2022-08-25T04:29:02;100985.97;;;18.90;100.00
66381;BME280;53177;52.648;1.214;2022-08-25T04:31:29;100981.63;;;18.89;100.00
66381;BME280;53177;52.648;1.214;2022-08-25T04:34:00;100978.91;;;18.89;100.00
66381;BME280;53177;52.648;1.214;2022-08-25T04:36:28;100979.47;;;18.86;100.00
66381;BME280;53177;52.648;1.214;2022-08-25T04:38:55;100988.16;;;18.88;100.00
66381;BME280;53177;52.648;1.214;2022-08-25T04:41:22;100984.94;;;18.86;100.00
66381;BME280;53177;52.648;1.214;2022-08-25T04:43:48;100995.00;;;18.86;100.00
66381;BME280;53177;52.648;1.214;2022-08-25T04:46:22;100981.91;;;18.88;100.00
66381;BME280;53177;52.648;1.214;2022-08-25T04:48:50;100977.25;;;18.88;100.00
66381;BME280;53177;52.648;1.214;2022-08-25T04:51:23;100971.81;;;18.88;100.00
66381;BME280;53177;52.648;1.214;2022-08-25T04:53:49;100978.59;;;18.91;100.00
66381;BME280;53177;52.648;1.214;2022-08-25T04:56:19;100978.69;;;18.86;100.00
66381;BME280;53177;52.648;1.214;2022-08-25T04:58:46;100996.31;;;18.88;100.00
66381;BME280;53177;52.648;1.214;2022-08-25T05:01:18;100996.44;;;18.97;100.00
66381;BME280;53177;52.648;1.214;2022-08-25T05:03:46;100994.16;;;19.04;100.00
66381;BME280;53177;52.648;1.214;2022-08-25T05:06:12;101005.78;;;19.10;100.00
66381;BME280;53177;52.648;1.214;2022-08-25T05:08:38;101025.78;;;19.19;100.00
66381;BME280;53177;52.648;1.214;2022-08-25T05:11:12;101053.44;;;19.26;99.43
66381;BME280;53177;52.648;1.214;2022-08-25T05:13:39;101059.72;;;19.40;99.67
66381;BME280;53177;52.648;1.214;2022-08-25T05:16:05;101077.31;;;19.48;99.48
66381;BME280;53177;52.648;1.214;2022-08-25T05:18:33;101063.47;;;19.44;100.00
66381;BME280;53177;52.648;1.214;2022-08-25T05:21:07;101059.16;;;19.43;100.00
66381;BME280;53177;52.648;1.214;2022-08-25T05:23:33;101055.91;;;19.41;100.00
66381;BME280;53177;52.648;1.214;2022-08-25T05:26:05;101053.69;;;19.43;100.00
66381;BME280;53177;52.648;1.214;2022-08-25T05:28:31;101054.97;;;19.32;100.00
66381;BME280;53177;52.648;1.214;2022-08-25T05:31:00;101052.25;;;19.32;100.00
66381;BME280;53177;52.648;1.214;2022-08-25T05:33:27;101064.16;;;19.36;100.00
66381;BME280;53177;52.648;1.214;2022-08-25T05:35:52;101073.66;;;19.39;100.00
66381;BME280;53177;52.648;1.214;2022-08-25T05:38:18;101065.97;;;19.41;100.00
66381;BME280;53177;52.648;1.214;2022-08-25T05:40:43;101072.47;;;19.45;100.00
66381;BME280;53177;52.648;1.214;2022-08-25T05:43:09;101077.69;;;19.41;100.00
66381;BME280;53177;52.648;1.214;2022-08-25T05:45:35;101088.41;;;19.38;100.00
66381;BME280;53177;52.648;1.214;2022-08-25T05:48:01;101093.66;;;19.48;100.00
66381;BME280;53177;52.648;1.214;2022-08-25T05:50:27;101076.50;;;19.48;100.00
66381;BME280;53177;52.648;1.214;2022-08-25T05:52:53;101086.78;;;19.51;100.00
66381;BME280;53177;52.648;1.214;2022-08-25T05:55:18;101092.34;;;19.64;100.00
66381;BME280;53177;52.648;1.214;2022-08-25T05:57:44;101115.59;;;19.57;100.00
66381;BME280;53177;52.648;1.214;2022-08-25T06:00:11;101129.97;;;19.62;100.00
66381;BME280;53177;52.648;1.214;2022-08-25T06:02:38;101115.16;;;19.50;100.00
66381;BME280;53177;52.648;1.214;2022-08-25T06:05:21;101106.50;;;19.48;100.00
66381;BME280;53177;52.648;1.214;2022-08-25T06:07:49;101090.91;;;19.34;100.00
66381;BME280;53177;52.648;1.214;2022-08-25T06:10:19;101080.47;;;19.23;100.00
66381;BME280;53177;52.648;1.214;2022-08-25T06:12:47;101072.16;;;19.14;100.00
66381;BME280;53177;52.648;1.214;2022-08-25T06:15:15;101068.41;;;19.10;100.00
66381;BME280;53177;52.648;1.214;2022-08-25T06:17:41;101056.44;;;19.11;100.00
66381;BME280;53177;52.648;1.214;2022-08-25T06:20:09;101060.16;;;19.15;100.00
66381;BME280;53177;52.648;1.214;2022-08-25T06:22:35;101061.47;;;19.17;100.00
66381;BME280;53177;52.648;1.214;2022-08-25T06:25:03;101062.38;;;19.13;100.00
66381;BME280;53177;52.648;1.214;2022-08-25T06:27:28;101049.44;;;19.05;100.00
66381;BME280;53177;52.648;1.214;2022-08-25T06:29:54;101046.28;;;18.98;100.00
66381;BME280;53177;52.648;1.214;2022-08-25T06:32:19;101040.00;;;18.97;100.00
66381;BME280;53177;52.648;1.214;2022-08-25T06:34:45;101047.28;;;19.02;100.00
66381;BME280;53177;52.648;1.214;2022-08-25T06:37:10;101059.81;;;19.03;100.00
66381;BME280;53177;52.648;1.214;2022-08-25T06:39:36;101055.47;;;19.02;100.00
66381;BME280;53177;52.648;1.214;2022-08-25T06:42:01;101059.38;;;18.96;100.00
66381;BME280;53177;52.648;1.214;2022-08-25T06:44:26;101060.91;;;19.02;100.00
66381;BME280;53177;52.648;1.214;2022-08-25T06:46:52;101078.41;;;19.14;100.00
66381;BME280;53177;52.648;1.214;2022-08-25T06:49:18;101074.03;;;19.32;100.00
66381;BME280;53177;52.648;1.214;2022-08-25T06:51:44;101074.22;;;19.22;100.00
66381;BME280;53177;52.648;1.214;2022-08-25T06:54:10;101081.03;;;19.19;100.00
66381;BME280;53177;52.648;1.214;2022-08-25T06:56:35;101071.22;;;19.05;100.00
66381;BME280;53177;52.648;1.214;2022-08-25T06:59:04;101075.50;;;19.11;100.00
66381;BME280;53177;52.648;1.214;2022-08-25T07:01:31;101076.06;;;19.08;100.00
66381;BME280;53177;52.648;1.214;2022-08-25T07:03:59;101072.97;;;19.14;100.00
66381;BME280;53177;52.648;1.214;2022-08-25T07:06:28;101066.16;;;18.98;100.00
66381;BME280;53177;52.648;1.214;2022-08-25T07:08:55;101059.16;;;18.92;100.00
66381;BME280;53177;52.648;1.214;2022-08-25T07:11:21;101061.66;;;18.88;100.00
66381;BME280;53177;52.648;1.214;2022-08-25T07:13:47;101072.41;;;18.99;100.00
66381;BME280;53177;52.648;1.214;2022-08-25T07:16:14;101069.06;;;19.02;100.00
66381;BME280;53177;52.648;1.214;2022-08-25T07:18:40;101065.84;;;19.00;100.00
66381;BME280;53177;52.648;1.214;2022-08-25T07:21:06;101063.69;;;18.97;100.00
66381;BME280;53177;52.648;1.214;2022-08-25T07:23:31;101076.25;;;18.98;100.00
66381;BME280;53177;52.648;1.214;2022-08-25T07:28:34;101075.41;;;19.16;100.00
66381;BME280;53177;52.648;1.214;2022-08-25T07:31:00;101076.84;;;19.27;100.00
66381;BME280;53177;52.648;1.214;2022-08-25T07:33:25;101081.94;;;19.34;99.84
66381;BME280;53177;52.648;1.214;2022-08-25T07:35:51;101083.94;;;19.42;100.00
66381;BME280;53177;52.648;1.214;2022-08-25T07:38:17;101088.41;;;19.38;100.00
66381;BME280;53177;52.648;1.214;2022-08-25T07:40:42;101082.19;;;19.32;100.00
66381;BME280;53177;52.648;1.214;2022-08-25T07:43:08;101081.13;;;19.33;100.00
66381;BME280;53177;52.648;1.214;2022-08-25T07:45:37;101084.78;;;19.42;100.00
66381;BME280;53177;52.648;1.214;2022-08-25T07:48:08;101073.03;;;19.42;100.00
66381;BME280;53177;52.648;1.214;2022-08-25T07:50:34;101078.50;;;19.61;100.00
66381;BME280;53177;52.648;1.214;2022-08-25T07:53:02;101085.00;;;19.60;100.00
66381;BME280;53177;52.648;1.214;2022-08-25T07:55:28;101082.47;;;19.50;100.00
66381;BME280;53177;52.648;1.214;2022-08-25T07:57:55;101097.19;;;19.49;100.00
66381;BME280;53177;52.648;1.214;2022-08-25T08:00:26;101101.59;;;19.63;98.53
66381;BME280;53177;52.648;1.214;2022-08-25T08:02:57;101101.34;;;19.60;97.74
66381;BME280;53177;52.648;1.214;2022-08-25T08:05:24;101122.66;;;19.58;97.18
66381;BME280;53177;52.648;1.214;2022-08-25T08:07:51;101136.53;;;19.61;97.96
66381;BME280;53177;52.648;1.214;2022-08-25T08:10:18;101153.28;;;19.68;95.32
66381;BME280;53177;52.648;1.214;2022-08-25T08:12:44;101155.75;;;19.70;98.99
66381;BME280;53177;52.648;1.214;2022-08-25T08:15:10;101157.59;;;19.56;100.00
66381;BME280;53177;52.648;1.214;2022-08-25T08:17:35;101161.38;;;19.55;100.00
66381;BME280;53177;52.648;1.214;2022-08-25T08:20:02;101165.91;;;19.45;100.00
66381;BME280;53177;52.648;1.214;2022-08-25T08:22:30;101160.44;;;19.45;100.00
66381;BME280;53177;52.648;1.214;2022-08-25T08:24:55;101144.78;;;19.37;100.00
66381;BME280;53177;52.648;1.214;2022-08-25T08:27:21;101139.94;;;19.34;100.00
66381;BME280;53177;52.648;1.214;2022-08-25T08:29:46;101141.09;;;19.28;100.00
66381;BME280;53177;52.648;1.214;2022-08-25T08:32:12;101129.78;;;19.21;100.00
66381;BME280;53177;52.648;1.214;2022-08-25T08:34:39;101124.41;;;19.16;100.00
66381;BME280;53177;52.648;1.214;2022-08-25T08:37:05;101136.69;;;19.13;100.00
66381;BME280;53177;52.648;1.214;2022-08-25T08:39:31;101137.59;;;19.09;100.00
66381;BME280;53177;52.648;1.214;2022-08-25T08:42:36;101128.63;;;19.08;100.00
66381;BME280;53177;52.648;1.214;2022-08-25T08:45:20;101120.88;;;18.97;100.00
66381;BME280;53177;52.648;1.214;2022-08-25T08:48:14;101132.16;;;18.90;100.00
66381;BME280;53177;52.648;1.214;2022-08-25T08:51:06;101146.63;;;18.85;100.00
66381;BME280;53177;52.648;1.214;2022-08-25T08:53:59;101139.13;;;18.77;100.00
66381;BME280;53177;52.648;1.214;2022-08-25T08:56:29;101124.41;;;18.78;100.00
66381;BME280;53177;52.648;1.214;2022-08-25T08:59:09;101118.03;;;18.64;100.00
66381;BME280;53177;52.648;1.214;2022-08-25T09:01:55;101104.38;;;18.69;100.00
66381;BME280;53177;52.648;1.214;2022-08-25T09:04:33;101118.53;;;18.71;100.00
66381;BME280;53177;52.648;1.214;2022-08-25T09:07:02;101118.25;;;18.67;100.00
66381;BME280;53177;52.648;1.214;2022-08-25T09:09:32;101122.22;;;18.80;100.00
66381;BME280;53177;52.648;1.214;2022-08-25T09:22:58;101123.53;;;18.83;100.00
66381;BME280;53177;52.648;1.214;2022-08-25T09:28:21;101131.84;;;18.91;100.00
66381;BME280;53177;52.648;1.214;2022-08-25T09:33:21;101133.41;;;18.98;100.00
66381;BME280;53177;52.648;1.214;2022-08-25T09:35:49;101130.16;;;18.96;100.00
66381;BME280;53177;52.648;1.214;2022-08-25T09:38:14;101130.66;;;18.79;100.00
66381;BME280;53177;52.648;1.214;2022-08-25T09:40:43;101123.91;;;18.76;100.00
66381;BME280;53177;52.648;1.214;2022-08-25T09:43:31;101128.88;;;18.69;100.00
66381;BME280;53177;52.648;1.214;2022-08-25T09:46:13;101129.84;;;18.78;100.00
66381;BME280;53177;52.648;1.214;2022-08-25T09:48:47;101125.81;;;18.76;100.00
66381;BME280;53177;52.648;1.214;2022-08-25T09:51:27;101130.22;;;18.72;100.00
66381;BME280;53177;52.648;1.214;2022-08-25T09:54:03;101110.59;;;18.93;100.00
66381;BME280;53177;52.648;1.214;2022-08-25T09:56:32;101112.06;;;19.05;100.00
66381;BME280;53177;52.648;1.214;2022-08-25T09:59:22;101110.88;;;19.11;100.00
66381;BME280;53177;52.648;1.214;2022-08-25T10:04:24;101099.00;;;19.02;100.00
66381;BME280;53177;52.648;1.214;2022-08-25T10:06:50;101110.13;;;19.05;100.00
66381;BME280;53177;52.648;1.214;2022-08-25T10:09:27;101117.13;;;19.11;100.00
66381;BME280;53177;52.648;1.214;2022-08-25T10:11:55;101119.56;;;19.13;100.00
66381;BME280;53177;52.648;1.214;2022-08-25T10:19:37;101112.34;;;19.55;100.00
66381;BME280;53177;52.648;1.214;2022-08-25T10:22:21;101126.44;;;19.62;100.00
66381;BME280;53177;52.648;1.214;2022-08-25T10:24:48;101139.50;;;19.79;100.00
66381;BME280;53177;52.648;1.214;2022-08-25T10:27:26;101143.81;;;19.66;100.00
66381;BME280;53177;52.648;1.214;2022-08-25T10:30:16;101132.81;;;19.71;100.00
66381;BME280;53177;52.648;1.214;2022-08-25T10:32:53;101129.31;;;19.84;100.00
66381;BME280;53177;52.648;1.214;2022-08-25T10:40:34;101143.19;;;20.02;100.00
66381;BME280;53177;52.648;1.214;2022-08-25T10:46:11;101143.88;;;19.93;100.00
66381;BME280;53177;52.648;1.214;2022-08-25T10:49:06;101129.22;;;19.89;100.00
66381;BME280;53177;52.648;1.214;2022-08-25T10:54:37;101111.50;;;19.73;100.00
66381;BME280;53177;52.648;1.214;2022-08-25T10:57:21;101114.78;;;19.89;100.00
66381;BME280;53177;52.648;1.214;2022-08-25T11:05:18;101145.09;;;19.87;100.00
66381;BME280;53177;52.648;1.214;2022-08-25T11:07:48;101161.47;;;20.01;100.00
66381;BME280;53177;52.648;1.214;2022-08-25T11:10:46;101162.28;;;20.02;100.00
66381;BME280;53177;52.648;1.214;2022-08-25T11:13:27;101164.06;;;19.92;100.00
66381;BME280;53177;52.648;1.214;2022-08-25T11:16:00;101147.50;;;19.89;100.00
66381;BME280;53177;52.648;1.214;2022-08-25T11:18:29;101142.09;;;19.70;100.00
66381;BME280;53177;52.648;1.214;2022-08-25T11:21:11;101121.63;;;19.54;100.00
66381;BME280;53177;52.648;1.214;2022-08-25T11:23:48;101112.44;;;19.50;100.00
66381;BME280;53177;52.648;1.214;2022-08-25T11:26:19;101105.88;;;19.51;100.00
66381;BME280;53177;52.648;1.214;2022-08-25T11:31:38;101102.44;;;19.45;100.00
66381;BME280;53177;52.648;1.214;2022-08-25T11:34:08;101104.56;;;19.48;100.00
66381;BME280;53177;52.648;1.214;2022-08-25T11:36:36;101121.13;;;19.52;100.00
66381;BME280;53177;52.648;1.214;2022-08-25T11:44:38;101108.47;;;19.61;100.00
66381;BME280;53177;52.648;1.214;2022-08-25T11:57:36;101110.56;;;19.97;100.00
66381;BME280;53177;52.648;1.214;2022-08-25T12:00:41;101113.38;;;19.91;100.00
66381;BME280;53177;52.648;1.214;2022-08-25T12:03:44;101108.13;;;19.95;100.00
66381;BME280;53177;52.648;1.214;2022-08-25T12:08:11;101125.69;;;19.89;100.00
66381;BME280;53177;52.648;1.214;2022-08-25T12:13:37;101126.19;;;19.91;100.00
66381;BME280;53177;52.648;1.214;2022-08-25T12:16:04;101130.25;;;19.93;100.00
66381;BME280;53177;52.648;1.214;2022-08-25T12:23:41;101131.47;;;19.68;100.00
66381;BME280;53177;52.648;1.214;2022-08-25T12:26:42;101131.31;;;19.79;100.00
66381;BME280;53177;52.648;1.214;2022-08-25T12:37:54;101133.50;;;19.63;100.00
66381;BME280;53177;52.648;1.214;2022-08-25T12:40:35;101124.41;;;19.67;100.00
66381;BME280;53177;52.648;1.214;2022-08-25T12:43:07;101117.38;;;19.66;100.00
66381;BME280;53177;52.648;1.214;2022-08-25T12:45:35;101121.31;;;19.55;100.00
66381;BME280;53177;52.648;1.214;2022-08-25T12:51:15;101103.88;;;19.56;100.00
66381;BME280;53177;52.648;1.214;2022-08-25T13:14:52;101108.50;;;19.23;100.00
66381;BME280;53177;52.648;1.214;2022-08-25T13:17:32;101113.06;;;19.28;100.00
66381;BME280;53177;52.648;1.214;2022-08-25T13:20:22;101116.44;;;19.19;100.00
66381;BME280;53177;52.648;1.214;2022-08-25T13:22:50;101115.19;;;19.31;100.00
66381;BME280;53177;52.648;1.214;2022-08-25T13:25:18;101117.03;;;19.35;100.00
66381;BME280;53177;52.648;1.214;2022-08-25T13:27:56;101114.81;;;19.37;100.00
66381;BME280;53177;52.648;1.214;2022-08-25T13:30:26;101115.63;;;19.38;100.00
66381;BME280;53177;52.648;1.214;2022-08-25T13:32:53;101121.28;;;19.41;100.00
66381;BME280;53177;52.648;1.214;2022-08-25T13:35:22;101115.03;;;19.41;100.00
66381;BME280;53177;52.648;1.214;2022-08-25T13:37:49;101123.94;;;19.47;100.00
66381;BME280;53177;52.648;1.214;2022-08-25T13:42:46;101122.13;;;19.23;100.00
66381;BME280;53177;52.648;1.214;2022-08-25T13:45:16;101125.94;;;19.22;100.00
66381;BME280;53177;52.648;1.214;2022-08-25T13:47:43;101129.41;;;19.09;100.00
66381;BME280;53177;52.648;1.214;2022-08-25T13:50:34;101133.31;;;19.22;100.00
66381;BME280;53177;52.648;1.214;2022-08-25T13:53:10;101132.13;;;19.28;100.00
66381;BME280;53177;52.648;1.214;2022-08-25T13:58:17;101143.81;;;19.28;100.00
66381;BME280;53177;52.648;1.214;2022-08-25T14:01:07;101139.63;;;19.36;100.00
66381;BME280;53177;52.648;1.214;2022-08-25T14:03:42;101137.28;;;19.10;100.00
66381;BME280;53177;52.648;1.214;2022-08-25T14:09:02;101147.38;;;19.10;100.00
66381;BME280;53177;52.648;1.214;2022-08-25T14:11:32;101159.28;;;19.14;100.00
66381;BME280;53177;52.648;1.214;2022-08-25T14:14:05;101161.44;;;19.17;100.00
66381;BME280;53177;52.648;1.214;2022-08-25T14:16:38;101160.41;;;19.13;100.00
66381;BME280;53177;52.648;1.214;2022-08-25T14:19:18;101162.75;;;19.19;100.00
66381;BME280;53177;52.648;1.214;2022-08-25T14:21:45;101163.41;;;19.30;100.00
66381;BME280;53177;52.648;1.214;2022-08-25T14:24:15;101167.19;;;19.34;100.00
66381;BME280;53177;52.648;1.214;2022-08-25T14:26:41;101182.47;;;19.49;100.00
66381;BME280;53177;52.648;1.214;2022-08-25T14:29:07;101185.91;;;19.55;100.00
66381;BME280;53177;52.648;1.214;2022-08-25T14:31:34;101182.09;;;19.75;100.00
66381;BME280;53177;52.648;1.214;2022-08-25T14:34:03;101183.81;;;19.71;100.00
66381;BME280;53177;52.648;1.214;2022-08-25T14:36:30;101178.22;;;19.62;100.00
66381;BME280;53177;52.648;1.214;2022-08-25T14:38:57;101183.09;;;19.60;100.00
66381;BME280;53177;52.648;1.214;2022-08-25T14:41:24;101185.00;;;19.64;100.00
66381;BME280;53177;52.648;1.214;2022-08-25T14:43:50;101195.41;;;19.76;100.00
66381;BME280;53177;52.648;1.214;2022-08-25T14:46:24;101196.00;;;19.73;100.00
66381;BME280;53177;52.648;1.214;2022-08-25T14:48:54;101192.59;;;19.81;100.00
66381;BME280;53177;52.648;1.214;2022-08-25T14:51:22;101191.72;;;19.86;100.00
66381;BME280;53177;52.648;1.214;2022-08-25T14:53:48;101190.13;;;19.99;100.00
66381;BME280;53177;52.648;1.214;2022-08-25T14:56:14;101197.53;;;20.12;100.00